sensor_id;sensor_type;location;lat;lon;timestamp;temperature;humidity
38606;DHT22;24365;48.446;8.850;2023-06-22T00:00:52;20.90;65.20
38606;DHT22;24365;48.446;8.850;2023-06-22T00:05:53;20.80;65.30
38606;DHT22;24365;48.446;8.850;2023-06-22T00:10:54;20.80;65.40
38606;DHT22;24365;48.446;8.850;2023-06-22T00:15:55;20.80;65.40
38606;DHT22;24365;48.446;8.850;2023-06-22T00:20:56;20.80;65.10
38606;DHT22;24365;48.446;8.850;2023-06-22T00:25:58;20.70;65.30
38606;DHT22;24365;48.446;8.850;2023-06-22T00:31:00;20.70;65.10
38606;DHT22;24365;48.446;8.850;2023-06-22T00:36:03;20.50;65.90
38606;DHT22;24365;48.446;8.850;2023-06-22T00:41:05;20.40;67.20
38606;DHT22;24365;48.446;8.850;2023-06-22T00:46:06;20.20;68.20
38606;DHT22;24365;48.446;8.850;2023-06-22T00:51:07;20.10;68.50
38606;DHT22;24365;48.446;8.850;2023-06-22T00:56:08;20.00;68.60
38606;DHT22;24365;48.446;8.850;2023-06-22T01:01:10;19.80;70.50
38606;DHT22;24365;48.446;8.850;2023-06-22T01:06:15;19.70;72.50
38606;DHT22;24365;48.446;8.850;2023-06-22T01:11:26;19.40;76.00
38606;DHT22;24365;48.446;8.850;2023-06-22T01:16:30;19.40;75.10
38606;DHT22;24365;48.446;8.850;2023-06-22T01:21:32;19.50;74.00
38606;DHT22;24365;48.446;8.850;2023-06-22T01:31:59;19.70;71.80
38606;DHT22;24365;48.446;8.850;2023-06-22T01:37:03;19.70;70.90
38606;DHT22;24365;48.446;8.850;2023-06-22T01:42:05;19.80;70.00
38606;DHT22;24365;48.446;8.850;2023-06-22T01:47:07;19.80;69.80
38606;DHT22;24365;48.446;8.850;2023-06-22T01:52:11;19.70;69.90
38606;DHT22;24365;48.446;8.850;2023-06-22T01:57:12;19.60;70.00
38606;DHT22;24365;48.446;8.850;2023-06-22T02:02:16;19.60;69.70
38606;DHT22;24365;48.446;8.850;2023-06-22T02:07:18;19.60;69.70
38606;DHT22;24365;48.446;8.850;2023-06-22T02:12:24;19.60;69.40
38606;DHT22;24365;48.446;8.850;2023-06-22T02:17:26;19.50;70.30
38606;DHT22;24365;48.446;8.850;2023-06-22T02:22:27;19.40;70.10
38606;DHT22;24365;48.446;8.850;2023-06-22T02:27:28;19.40;69.60
38606;DHT22;24365;48.446;8.850;2023-06-22T02:32:31;19.20;71.10
38606;DHT22;24365;48.446;8.850;2023-06-22T02:37:38;18.90;73.00
38606;DHT22;24365;48.446;8.850;2023-06-22T02:42:42;18.80;74.10
38606;DHT22;24365;48.446;8.850;2023-06-22T02:47:43;18.70;74.00
38606;DHT22;24365;48.446;8.850;2023-06-22T02:52:44;18.80;73.60
38606;DHT22;24365;48.446;8.850;2023-06-22T02:57:46;18.90;73.20
38606;DHT22;24365;48.446;8.850;2023-06-22T03:02:48;18.80;72.40
38606;DHT22;24365;48.446;8.850;2023-06-22T03:07:50;18.90;72.50
38606;DHT22;24365;48.446;8.850;2023-06-22T03:12:54;18.90;71.70
38606;DHT22;24365;48.446;8.850;2023-06-22T03:17:56;18.80;71.60
38606;DHT22;24365;48.446;8.850;2023-06-22T03:22:59;18.80;71.80
38606;DHT22;24365;48.446;8.850;2023-06-22T03:28:02;18.90;71.00
38606;DHT22;24365;48.446;8.850;2023-06-22T03:33:03;18.80;71.30
38606;DHT22;24365;48.446;8.850;2023-06-22T03:38:04;18.80;71.30
38606;DHT22;24365;48.446;8.850;2023-06-22T03:43:05;18.80;71.40
38606;DHT22;24365;48.446;8.850;2023-06-22T03:48:06;18.70;71.20
38606;DHT22;24365;48.446;8.850;2023-06-22T03:53:09;18.70;71.30
38606;DHT22;24365;48.446;8.850;2023-06-22T03:58:11;18.70;71.40
38606;DHT22;24365;48.446;8.850;2023-06-22T04:03:13;18.70;71.40
38606;DHT22;24365;48.446;8.850;2023-06-22T04:08:14;18.70;71.20
38606;DHT22;24365;48.446;8.850;2023-06-22T04:13:16;18.70;71.20
38606;DHT22;24365;48.446;8.850;2023-06-22T04:18:16;18.80;70.40
38606;DHT22;24365;48.446;8.850;2023-06-22T04:23:17;18.80;70.80
38606;DHT22;24365;48.446;8.850;2023-06-22T04:28:18;18.90;70.80
38606;DHT22;24365;48.446;8.850;2023-06-22T04:33:19;19.00;69.80
38606;DHT22;24365;48.446;8.850;2023-06-22T04:38:20;19.00;70.20
38606;DHT22;24365;48.446;8.850;2023-06-22T04:43:23;19.10;70.40
38606;DHT22;24365;48.446;8.850;2023-06-22T04:48:24;19.20;71.30
38606;DHT22;24365;48.446;8.850;2023-06-22T04:53:25;19.30;70.50
38606;DHT22;24365;48.446;8.850;2023-06-22T04:58:30;19.40;70.40
38606;DHT22;24365;48.446;8.850;2023-06-22T05:03:33;19.60;70.40
38606;DHT22;24365;48.446;8.850;2023-06-22T05:08:34;19.70;71.20
38606;DHT22;24365;48.446;8.850;2023-06-22T05:13:35;19.90;70.30
38606;DHT22;24365;48.446;8.850;2023-06-22T05:18:36;20.10;71.00
38606;DHT22;24365;48.446;8.850;2023-06-22T05:23:37;20.30;71.50
38606;DHT22;24365;48.446;8.850;2023-06-22T05:28:38;20.50;70.50
38606;DHT22;24365;48.446;8.850;2023-06-22T05:33:39;20.60;70.10
38606;DHT22;24365;48.446;8.850;2023-06-22T05:38:41;20.80;69.40
38606;DHT22;24365;48.446;8.850;2023-06-22T05:43:42;21.00;69.20
38606;DHT22;24365;48.446;8.850;2023-06-22T05:48:43;21.10;69.10
38606;DHT22;24365;48.446;8.850;2023-06-22T05:53:44;21.20;68.90
38606;DHT22;24365;48.446;8.850;2023-06-22T05:58:48;21.30;69.90
38606;DHT22;24365;48.446;8.850;2023-06-22T06:03:49;21.60;70.40
38606;DHT22;24365;48.446;8.850;2023-06-22T06:08:50;21.70;68.80
38606;DHT22;24365;48.446;8.850;2023-06-22T06:13:51;21.80;67.50
38606;DHT22;24365;48.446;8.850;2023-06-22T06:18:52;21.90;66.80
38606;DHT22;24365;48.446;8.850;2023-06-22T06:23:55;22.20;68.00
38606;DHT22;24365;48.446;8.850;2023-06-22T06:28:57;22.50;66.70
38606;DHT22;24365;48.446;8.850;2023-06-22T06:33:58;22.70;63.70
38606;DHT22;24365;48.446;8.850;2023-06-22T06:38:59;23.00;65.40
38606;DHT22;24365;48.446;8.850;2023-06-22T06:44:00;23.10;61.80
38606;DHT22;24365;48.446;8.850;2023-06-22T06:49:03;23.30;60.90
38606;DHT22;24365;48.446;8.850;2023-06-22T06:54:04;23.50;59.40
38606;DHT22;24365;48.446;8.850;2023-06-22T06:59:05;23.90;57.60
38606;DHT22;24365;48.446;8.850;2023-06-22T07:04:06;24.20;57.40
38606;DHT22;24365;48.446;8.850;2023-06-22T07:09:07;24.40;56.20
38606;DHT22;24365;48.446;8.850;2023-06-22T07:14:08;24.60;54.80
38606;DHT22;24365;48.446;8.850;2023-06-22T07:19:11;24.80;54.80
38606;DHT22;24365;48.446;8.850;2023-06-22T07:24:13;25.10;53.50
38606;DHT22;24365;48.446;8.850;2023-06-22T07:29:17;25.20;52.60
38606;DHT22;24365;48.446;8.850;2023-06-22T07:34:18;25.30;51.80
38606;DHT22;24365;48.446;8.850;2023-06-22T07:39:20;25.50;51.50
38606;DHT22;24365;48.446;8.850;2023-06-22T07:44:26;25.90;49.80
38606;DHT22;24365;48.446;8.850;2023-06-22T07:49:28;26.20;50.00
38606;DHT22;24365;48.446;8.850;2023-06-22T07:54:29;26.30;48.20
38606;DHT22;24365;48.446;8.850;2023-06-22T07:59:30;26.60;48.40
38606;DHT22;24365;48.446;8.850;2023-06-22T08:04:30;26.70;47.50
38606;DHT22;24365;48.446;8.850;2023-06-22T08:09:34;26.60;48.00
38606;DHT22;24365;48.446;8.850;2023-06-22T08:14:38;26.70;48.40
38606;DHT22;24365;48.446;8.850;2023-06-22T08:19:40;26.50;48.10
38606;DHT22;24365;48.446;8.850;2023-06-22T08:24:41;26.50;47.00
38606;DHT22;24365;48.446;8.850;2023-06-22T08:29:42;26.80;46.10
38606;DHT22;24365;48.446;8.850;2023-06-22T08:34:43;26.80;46.50
38606;DHT22;24365;48.446;8.850;2023-06-22T08:39:44;26.70;47.00
38606;DHT22;24365;48.446;8.850;2023-06-22T08:44:45;26.80;46.70
38606;DHT22;24365;48.446;8.850;2023-06-22T08:49:46;27.00;46.20
38606;DHT22;24365;48.446;8.850;2023-06-22T08:54:48;27.30;46.10
38606;DHT22;24365;48.446;8.850;2023-06-22T08:59:49;27.50;44.30
38606;DHT22;24365;48.446;8.850;2023-06-22T09:04:52;27.90;45.60
38606;DHT22;24365;48.446;8.850;2023-06-22T09:09:56;28.30;45.00
38606;DHT22;24365;48.446;8.850;2023-06-22T09:14:57;28.80;44.30
38606;DHT22;24365;48.446;8.850;2023-06-22T09:19:58;29.30;43.40
38606;DHT22;24365;48.446;8.850;2023-06-22T09:25:00;29.70;41.70
38606;DHT22;24365;48.446;8.850;2023-06-22T09:30:01;30.00;41.20
38606;DHT22;24365;48.446;8.850;2023-06-22T09:35:05;30.40;40.20
38606;DHT22;24365;48.446;8.850;2023-06-22T09:40:07;30.60;39.10
38606;DHT22;24365;48.446;8.850;2023-06-22T09:45:13;30.50;39.20
38606;DHT22;24365;48.446;8.850;2023-06-22T09:50:14;30.10;40.30
38606;DHT22;24365;48.446;8.850;2023-06-22T09:55:15;30.00;39.90
38606;DHT22;24365;48.446;8.850;2023-06-22T10:00:17;30.20;38.90
38606;DHT22;24365;48.446;8.850;2023-06-22T10:05:19;30.60;38.10
38606;DHT22;24365;48.446;8.850;2023-06-22T10:10:20;30.60;37.10
38606;DHT22;24365;48.446;8.850;2023-06-22T10:15:21;30.70;38.40
38606;DHT22;24365;48.446;8.850;2023-06-22T10:20:23;31.00;39.30
38606;DHT22;24365;48.446;8.850;2023-06-22T10:25:24;31.20;38.10
38606;DHT22;24365;48.446;8.850;2023-06-22T10:30:25;31.10;37.60
38606;DHT22;24365;48.446;8.850;2023-06-22T10:35:26;31.20;37.30
38606;DHT22;24365;48.446;8.850;2023-06-22T10:40:27;31.30;38.00
38606;DHT22;24365;48.446;8.850;2023-06-22T10:45:28;31.40;37.50
38606;DHT22;24365;48.446;8.850;2023-06-22T10:50:29;31.50;36.90
38606;DHT22;24365;48.446;8.850;2023-06-22T10:55:30;31.40;36.00
38606;DHT22;24365;48.446;8.850;2023-06-22T11:00:31;31.10;37.70
38606;DHT22;24365;48.446;8.850;2023-06-22T11:05:32;31.20;38.40
38606;DHT22;24365;48.446;8.850;2023-06-22T11:10:33;31.30;37.40
38606;DHT22;24365;48.446;8.850;2023-06-22T11:15:34;31.60;37.40
38606;DHT22;24365;48.446;8.850;2023-06-22T11:20:35;31.80;37.60
38606;DHT22;24365;48.446;8.850;2023-06-22T11:25:39;31.90;36.10
38606;DHT22;24365;48.446;8.850;2023-06-22T11:30:40;31.80;36.60
38606;DHT22;24365;48.446;8.850;2023-06-22T11:35:41;31.70;37.10
38606;DHT22;24365;48.446;8.850;2023-06-22T11:40:42;31.60;35.80
38606;DHT22;24365;48.446;8.850;2023-06-22T11:45:43;31.40;37.70
38606;DHT22;24365;48.446;8.850;2023-06-22T11:50:44;31.10;37.90
38606;DHT22;24365;48.446;8.850;2023-06-22T11:55:45;31.20;38.50
38606;DHT22;24365;48.446;8.850;2023-06-22T12:00:47;31.10;39.00
38606;DHT22;24365;48.446;8.850;2023-06-22T12:05:49;31.00;40.80
38606;DHT22;24365;48.446;8.850;2023-06-22T12:10:50;30.80;41.30
38606;DHT22;24365;48.446;8.850;2023-06-22T12:15:52;30.80;41.30
38606;DHT22;24365;48.446;8.850;2023-06-22T12:20:53;30.70;42.80
38606;DHT22;24365;48.446;8.850;2023-06-22T12:25:54;30.70;42.90
38606;DHT22;24365;48.446;8.850;2023-06-22T12:30:55;30.40;44.40
38606;DHT22;24365;48.446;8.850;2023-06-22T12:35:56;30.30;45.50
38606;DHT22;24365;48.446;8.850;2023-06-22T12:40:58;30.30;46.40
38606;DHT22;24365;48.446;8.850;2023-06-22T12:45:59;30.50;46.10
38606;DHT22;24365;48.446;8.850;2023-06-22T12:51:00;30.40;46.80
38606;DHT22;24365;48.446;8.850;2023-06-22T12:56:01;30.30;47.70
38606;DHT22;24365;48.446;8.850;2023-06-22T13:01:02;30.40;48.20
38606;DHT22;24365;48.446;8.850;2023-06-22T13:06:03;30.50;48.30
38606;DHT22;24365;48.446;8.850;2023-06-22T13:11:05;30.80;47.40
38606;DHT22;24365;48.446;8.850;2023-06-22T13:16:06;31.10;46.90
38606;DHT22;24365;48.446;8.850;2023-06-22T13:21:07;31.20;44.20
38606;DHT22;24365;48.446;8.850;2023-06-22T13:26:08;31.30;44.20
38606;DHT22;24365;48.446;8.850;2023-06-22T13:31:09;31.40;44.40
38606;DHT22;24365;48.446;8.850;2023-06-22T13:36:10;31.40;43.80
38606;DHT22;24365;48.446;8.850;2023-06-22T13:41:11;31.40;44.10
38606;DHT22;24365;48.446;8.850;2023-06-22T13:46:12;31.70;43.40
38606;DHT22;24365;48.446;8.850;2023-06-22T13:51:13;31.70;42.60
38606;DHT22;24365;48.446;8.850;2023-06-22T13:56:14;31.70;42.20
38606;DHT22;24365;48.446;8.850;2023-06-22T14:01:15;31.60;42.00
38606;DHT22;24365;48.446;8.850;2023-06-22T14:06:16;31.40;41.50
38606;DHT22;24365;48.446;8.850;2023-06-22T14:11:17;31.40;41.50
38606;DHT22;24365;48.446;8.850;2023-06-22T14:16:18;31.60;41.90
38606;DHT22;24365;48.446;8.850;2023-06-22T14:21:19;31.90;41.30
38606;DHT22;24365;48.446;8.850;2023-06-22T14:26:20;32.10;40.70
38606;DHT22;24365;48.446;8.850;2023-06-22T14:31:22;32.40;38.50
38606;DHT22;24365;48.446;8.850;2023-06-22T14:36:23;32.70;38.30
38606;DHT22;24365;48.446;8.850;2023-06-22T14:41:25;32.40;33.10
38606;DHT22;24365;48.446;8.850;2023-06-22T14:46:26;32.20;30.00
38606;DHT22;24365;48.446;8.850;2023-06-22T14:51:27;31.90;28.40
38606;DHT22;24365;48.446;8.850;2023-06-22T14:56:28;31.70;28.00
38606;DHT22;24365;48.446;8.850;2023-06-22T15:01:31;31.80;27.90
38606;DHT22;24365;48.446;8.850;2023-06-22T15:06:32;31.70;26.70
38606;DHT22;24365;48.446;8.850;2023-06-22T15:11:35;31.40;26.60
38606;DHT22;24365;48.446;8.850;2023-06-22T15:16:36;31.20;27.70
38606;DHT22;24365;48.446;8.850;2023-06-22T15:21:37;30.90;27.70
38606;DHT22;24365;48.446;8.850;2023-06-22T15:26:38;30.70;28.40
38606;DHT22;24365;48.446;8.850;2023-06-22T15:31:39;30.50;29.30
38606;DHT22;24365;48.446;8.850;2023-06-22T15:36:41;30.30;29.20
38606;DHT22;24365;48.446;8.850;2023-06-22T15:41:42;30.00;29.70
38606;DHT22;24365;48.446;8.850;2023-06-22T15:46:43;29.90;30.20
38606;DHT22;24365;48.446;8.850;2023-06-22T15:51:44;29.80;30.00
38606;DHT22;24365;48.446;8.850;2023-06-22T15:56:45;29.70;32.00
38606;DHT22;24365;48.446;8.850;2023-06-22T16:01:46;29.70;32.70
38606;DHT22;24365;48.446;8.850;2023-06-22T16:06:47;29.50;33.90
38606;DHT22;24365;48.446;8.850;2023-06-22T16:11:48;29.50;36.00
38606;DHT22;24365;48.446;8.850;2023-06-22T16:16:49;29.50;33.50
38606;DHT22;24365;48.446;8.850;2023-06-22T16:21:50;29.60;34.50
38606;DHT22;24365;48.446;8.850;2023-06-22T16:26:52;29.60;33.80
38606;DHT22;24365;48.446;8.850;2023-06-22T16:31:53;29.50;31.40
38606;DHT22;24365;48.446;8.850;2023-06-22T16:36:54;29.50;30.20
38606;DHT22;24365;48.446;8.850;2023-06-22T16:41:59;29.40;30.40
38606;DHT22;24365;48.446;8.850;2023-06-22T16:47:00;29.20;29.90
38606;DHT22;24365;48.446;8.850;2023-06-22T16:52:03;28.90;30.50
38606;DHT22;24365;48.446;8.850;2023-06-22T16:57:04;28.70;30.90
38606;DHT22;24365;48.446;8.850;2023-06-22T17:02:12;28.50;30.40
38606;DHT22;24365;48.446;8.850;2023-06-22T17:07:19;28.30;30.90
38606;DHT22;24365;48.446;8.850;2023-06-22T17:12:20;28.10;31.50
38606;DHT22;24365;48.446;8.850;2023-06-22T17:17:24;27.90;31.50
38606;DHT22;24365;48.446;8.850;2023-06-22T17:22:30;27.70;31.30
38606;DHT22;24365;48.446;8.850;2023-06-22T17:27:40;27.30;31.60
38606;DHT22;24365;48.446;8.850;2023-06-22T17:32:48;27.00;32.90
38606;DHT22;24365;48.446;8.850;2023-06-22T17:37:53;26.60;33.40
38606;DHT22;24365;48.446;8.850;2023-06-22T17:43:04;26.20;34.60
38606;DHT22;24365;48.446;8.850;2023-06-22T17:53:13;25.90;36.10
38606;DHT22;24365;48.446;8.850;2023-06-22T17:58:16;25.70;36.30
38606;DHT22;24365;48.446;8.850;2023-06-22T18:03:24;25.50;38.20
38606;DHT22;24365;48.446;8.850;2023-06-22T18:08:25;25.40;40.20
38606;DHT22;24365;48.446;8.850;2023-06-22T18:13:28;25.20;42.00
38606;DHT22;24365;48.446;8.850;2023-06-22T18:18:31;25.10;44.30
38606;DHT22;24365;48.446;8.850;2023-06-22T18:23:35;25.20;45.30
38606;DHT22;24365;48.446;8.850;2023-06-22T18:28:37;24.90;45.10
38606;DHT22;24365;48.446;8.850;2023-06-22T18:33:40;24.60;47.10
38606;DHT22;24365;48.446;8.850;2023-06-22T18:38:42;24.00;49.20
38606;DHT22;24365;48.446;8.850;2023-06-22T18:43:51;23.60;52.00
38606;DHT22;24365;48.446;8.850;2023-06-22T18:49:02;23.10;54.90
38606;DHT22;24365;48.446;8.850;2023-06-22T18:54:04;23.00;55.50
38606;DHT22;24365;48.446;8.850;2023-06-22T19:11:12;22.80;55.80
38606;DHT22;24365;48.446;8.850;2023-06-22T19:16:13;22.70;56.20
38606;DHT22;24365;48.446;8.850;2023-06-22T19:21:22;22.70;55.30
38606;DHT22;24365;48.446;8.850;2023-06-22T19:26:24;22.50;56.10
38606;DHT22;24365;48.446;8.850;2023-06-22T19:31:26;22.40;55.20
38606;DHT22;24365;48.446;8.850;2023-06-22T19:36:37;22.20;56.40
38606;DHT22;24365;48.446;8.850;2023-06-22T19:41:39;22.10;56.70
38606;DHT22;24365;48.446;8.850;2023-06-22T19:46:40;22.00;56.30
38606;DHT22;24365;48.446;8.850;2023-06-22T19:51:43;21.90;55.80
38606;DHT22;24365;48.446;8.850;2023-06-22T19:56:44;21.70;55.90
38606;DHT22;24365;48.446;8.850;2023-06-22T20:01:45;21.70;55.60
38606;DHT22;24365;48.446;8.850;2023-06-22T20:07:02;21.70;55.80
38606;DHT22;24365;48.446;8.850;2023-06-22T20:12:04;21.70;56.20
38606;DHT22;24365;48.446;8.850;2023-06-22T20:17:05;21.60;56.70
38606;DHT22;24365;48.446;8.850;2023-06-22T20:22:06;21.40;57.20
38606;DHT22;24365;48.446;8.850;2023-06-22T20:27:11;21.40;57.40
38606;DHT22;24365;48.446;8.850;2023-06-22T20:32:13;21.30;57.40
38606;DHT22;24365;48.446;8.850;2023-06-22T20:37:16;21.20;57.80
38606;DHT22;24365;48.446;8.850;2023-06-22T20:42:32;21.10;58.40
38606;DHT22;24365;48.446;8.850;2023-06-22T20:47:38;21.00;58.70
38606;DHT22;24365;48.446;8.850;2023-06-22T20:52:42;21.10;58.60
38606;DHT22;24365;48.446;8.850;2023-06-22T20:57:43;21.00;58.30
38606;DHT22;24365;48.446;8.850;2023-06-22T21:02:44;21.00;58.20
38606;DHT22;24365;48.446;8.850;2023-06-22T21:07:46;20.90;57.90
38606;DHT22;24365;48.446;8.850;2023-06-22T21:12:48;20.80;57.90
38606;DHT22;24365;48.446;8.850;2023-06-22T21:17:50;20.70;58.90
38606;DHT22;24365;48.446;8.850;2023-06-22T21:22:51;20.70;58.80
38606;DHT22;24365;48.446;8.850;2023-06-22T21:27:52;20.70;57.90
38606;DHT22;24365;48.446;8.850;2023-06-22T21:32:53;20.60;58.40
38606;DHT22;24365;48.446;8.850;2023-06-22T21:37:54;20.50;58.80
38606;DHT22;24365;48.446;8.850;2023-06-22T21:42:55;20.50;59.00
38606;DHT22;24365;48.446;8.850;2023-06-22T21:47:57;20.50;58.80
38606;DHT22;24365;48.446;8.850;2023-06-22T21:52:59;20.50;58.70
38606;DHT22;24365;48.446;8.850;2023-06-22T21:58:02;20.40;58.80
38606;DHT22;24365;48.446;8.850;2023-06-22T22:03:03;20.40;59.30
38606;DHT22;24365;48.446;8.850;2023-06-22T22:08:04;20.20;61.00
38606;DHT22;24365;48.446;8.850;2023-06-22T22:13:05;20.10;61.00
38606;DHT22;24365;48.446;8.850;2023-06-22T22:18:06;20.10;61.20
38606;DHT22;24365;48.446;8.850;2023-06-22T22:23:08;20.20;61.30
38606;DHT22;24365;48.446;8.850;2023-06-22T22:28:09;20.20;61.30
38606;DHT22;24365;48.446;8.850;2023-06-22T22:33:10;20.30;60.90
38606;DHT22;24365;48.446;8.850;2023-06-22T22:38:11;20.40;61.00
38606;DHT22;24365;48.446;8.850;2023-06-22T22:43:12;20.50;61.20
38606;DHT22;24365;48.446;8.850;2023-06-22T22:48:13;20.30;62.90
38606;DHT22;24365;48.446;8.850;2023-06-22T22:53:14;20.30;63.60
38606;DHT22;24365;48.446;8.850;2023-06-22T22:58:19;20.30;64.60
38606;DHT22;24365;48.446;8.850;2023-06-22T23:03:20;20.10;65.20
38606;DHT22;24365;48.446;8.850;2023-06-22T23:08:21;20.10;65.20
38606;DHT22;24365;48.446;8.850;2023-06-22T23:13:22;20.20;65.50
38606;DHT22;24365;48.446;8.850;2023-06-22T23:18:23;20.30;65.00
38606;DHT22;24365;48.446;8.850;2023-06-22T23:23:24;20.30;65.20
38606;DHT22;24365;48.446;8.850;2023-06-22T23:28:25;20.30;65.20
38606;DHT22;24365;48.446;8.850;2023-06-22T23:33:26;20.30;65.30
38606;DHT22;24365;48.446;8.850;2023-06-22T23:38:28;20.40;64.60
38606;DHT22;24365;48.446;8.850;2023-06-22T23:43:29;20.30;65.50
38606;DHT22;24365;48.446;8.850;2023-06-22T23:48:30;20.30;65.20
38606;DHT22;24365;48.446;8.850;2023-06-22T23:53:31;20.00;66.60
38606;DHT22;24365;48.446;8.850;2023-06-22T23:58:32;20.00;67.40
